Time;durP1;ratioP1;P1;durP2;ratioP2;P2;SDS_P1;SDS_P2;PMS_P1;PMS_P2;Temp;Humidity;BMP_temperature;BMP_pressure;BME280_temperature;BME280_humidity;BME280_pressure;Samples;Min_cycle;Max_cycle;Signal;HPM_P1;HPM_P2
2023/04/25 00:00:19;;;;;;;11.20;3.97;;;;;;;8.46;77.54;100542.50;5049040;28;20045;-71
2023/04/25 00:02:46;;;;;;;11.50;3.60;;;;;;;8.43;78.01;100539.94;5069339;28;20032;-70
2023/04/25 00:05:12;;;;;;;6.35;3.05;;;;;;;8.42;77.76;100537.41;5047641;28;20653;-71
2023/04/25 00:07:38;;;;;;;15.55;5.00;;;;;;;8.41;77.84;100533.09;5041833;28;20068;-70
2023/04/25 00:10:04;;;;;;;9.35;3.70;;;;;;;8.38;77.30;100533.09;5054396;28;20044;-71
2023/04/25 00:12:30;;;;;;;12.45;4.13;;;;;;;8.36;77.86;100545.13;5064628;28;20086;-71
2023/04/25 00:14:56;;;;;;;8.68;3.80;;;;;;;8.32;78.14;100544.28;5065385;28;20037;-71
2023/04/25 00:17:25;;;;;;;11.40;4.25;;;;;;;8.30;77.86;100543.44;5063640;28;20493;-71
2023/04/25 00:19:50;;;;;;;12.68;4.85;;;;;;;8.28;78.44;100541.72;5065081;28;20040;-71
2023/04/25 00:22:17;;;;;;;16.13;4.85;;;;;;;8.25;78.67;100546.91;5063017;28;20028;-71
2023/04/25 00:24:42;;;;;;;10.48;4.50;;;;;;;8.20;78.59;100546.88;5061899;28;20033;-71
2023/04/25 00:27:08;;;;;;;10.48;4.00;;;;;;;8.14;79.22;100546.91;5065500;28;20043;-71
2023/04/25 00:29:33;;;;;;;12.82;4.63;;;;;;;8.09;79.32;100545.19;5064025;28;20028;-71
2023/04/25 00:31:59;;;;;;;10.48;4.32;;;;;;;8.04;79.57;100552.91;5064663;28;20091;-71
2023/04/25 00:34:24;;;;;;;13.43;4.30;;;;;;;8.00;79.94;100546.94;5050645;28;20501;-71
2023/04/25 00:36:50;;;;;;;11.73;4.75;;;;;;;7.96;80.12;100554.66;5056654;28;20032;-71
2023/04/25 00:39:15;;;;;;;21.40;5.00;;;;;;;7.92;80.19;100553.78;5066705;28;20040;-71
2023/04/25 00:41:41;;;;;;;14.07;4.40;;;;;;;7.88;79.58;100546.09;5064804;28;20028;-71
2023/04/25 00:44:09;;;;;;;13.38;4.10;;;;;;;7.86;79.78;100545.25;5066393;28;20039;-71
2023/04/25 00:46:35;;;;;;;13.38;5.03;;;;;;;7.82;79.49;100543.53;5060827;28;20119;-71
2023/04/25 00:49:00;;;;;;;11.73;4.38;;;;;;;7.76;79.73;100540.94;5065087;28;20305;-71
2023/04/25 00:51:26;;;;;;;10.18;4.47;;;;;;;7.70;79.84;100540.97;5054706;28;20048;-71
2023/04/25 00:53:52;;;;;;;15.35;4.45;;;;;;;7.64;80.16;100546.09;5045427;28;20075;-71
2023/04/25 00:56:18;;;;;;;10.95;3.83;;;;;;;7.57;80.60;100544.38;5046097;28;20056;-71
2023/04/25 00:58:43;;;;;;;10.75;4.45;;;;;;;7.52;79.88;100539.25;5046558;28;20025;-70
2023/04/25 01:01:10;;;;;;;8.05;4.45;;;;;;;7.48;80.72;100537.50;5042692;28;20041;-71
2023/04/25 01:03:42;;;;;;;13.77;4.57;;;;;;;7.41;80.65;100535.81;5045463;28;20103;-71
2023/04/25 01:06:09;;;;;;;15.77;4.68;;;;;;;7.36;80.73;100534.94;5052171;28;20028;-71
2023/04/25 01:08:35;;;;;;;16.35;4.88;;;;;;;7.32;81.39;100544.38;5065622;28;20115;-71
2023/04/25 01:11:01;;;;;;;13.00;4.50;;;;;;;7.31;80.95;100537.50;5052575;28;20157;-71
2023/04/25 01:13:27;;;;;;;12.63;5.28;;;;;;;7.30;80.85;100540.06;5060232;28;20096;-70
2023/04/25 01:15:52;;;;;;;13.75;3.92;;;;;;;7.25;80.90;100540.06;5059926;28;20040;-71
2023/04/25 01:18:18;;;;;;;18.60;4.78;;;;;;;7.23;81.34;100546.94;5061905;28;20565;-71
2023/04/25 01:20:46;;;;;;;14.32;4.03;;;;;;;7.19;81.33;100544.34;5064291;28;20034;-70
2023/04/25 01:23:12;;;;;;;12.57;4.00;;;;;;;7.17;81.33;100543.50;5068690;28;20117;-70
2023/04/25 01:25:38;;;;;;;13.15;4.78;;;;;;;7.15;81.28;100542.63;5066288;28;20688;-71
2023/04/25 01:28:04;;;;;;;11.73;4.65;;;;;;;7.15;81.10;100545.19;5049764;28;20042;-70
2023/04/25 01:30:29;;;;;;;13.40;4.80;;;;;;;7.14;81.29;100546.03;5042453;28;20041;-71
2023/04/25 01:32:56;;;;;;;10.40;4.00;;;;;;;7.11;81.43;100546.03;5044028;28;20028;-71
2023/04/25 01:35:23;;;;;;;24.38;6.00;;;;;;;7.09;81.67;100556.28;5044902;28;20372;-71
2023/04/25 01:37:50;;;;;;;17.48;5.00;;;;;;;7.07;81.75;100560.56;5036243;28;20068;-71
2023/04/25 01:40:18;;;;;;;17.20;4.78;;;;;;;7.04;81.63;100557.13;5044619;28;20037;-70
2023/04/25 01:42:44;;;;;;;12.85;4.63;;;;;;;7.01;81.87;100551.97;5048699;28;20040;-71
2023/04/25 01:45:11;;;;;;;17.27;4.30;;;;;;;6.98;82.13;100568.25;5042871;28;20036;-71
2023/04/25 01:47:39;;;;;;;13.40;4.97;;;;;;;6.94;82.49;100565.69;5039279;28;20033;-71
2023/04/25 01:50:06;;;;;;;10.23;4.32;;;;;;;6.92;82.75;100570.81;5048499;28;20555;-71
2023/04/25 01:52:31;;;;;;;14.68;5.43;;;;;;;6.93;83.04;100575.09;5050126;28;20036;-71
2023/04/25 01:54:59;;;;;;;15.55;4.75;;;;;;;6.95;83.21;100575.09;5048797;28;20029;-71
2023/04/25 01:57:24;;;;;;;12.05;4.28;;;;;;;6.93;83.26;100576.81;5049724;28;20025;-72
2023/04/25 01:59:50;;;;;;;11.80;4.78;;;;;;;6.90;83.25;100573.38;5048486;28;20075;-71
2023/04/25 02:02:16;;;;;;;15.30;5.43;;;;;;;6.92;83.46;100575.94;5048599;28;20025;-70
2023/04/25 02:04:41;;;;;;;13.93;4.93;;;;;;;6.94;83.56;100575.97;5067468;28;20544;-70
2023/04/25 02:07:07;;;;;;;16.02;4.85;;;;;;;6.98;82.79;100573.38;5058317;28;20040;-71
2023/04/25 02:09:32;;;;;;;11.35;5.03;;;;;;;7.00;83.31;100576.81;5049574;28;20550;-72
2023/04/25 02:11:58;;;;;;;16.73;5.20;;;;;;;7.03;82.65;100579.38;5049989;28;20033;-71
2023/04/25 02:14:23;;;;;;;17.45;5.88;;;;;;;7.08;82.29;100576.84;5049194;28;20027;-70
2023/04/25 02:16:48;;;;;;;14.95;5.70;;;;;;;7.11;82.11;100574.28;5028889;28;20037;-70
2023/04/25 02:19:14;;;;;;;12.00;5.20;;;;;;;7.11;82.11;100572.59;5049783;28;20094;-71
2023/04/25 02:21:39;;;;;;;16.23;5.63;;;;;;;7.10;82.20;100573.44;5042031;28;20424;-70
2023/04/25 02:24:05;;;;;;;19.75;5.47;;;;;;;7.09;82.12;100576.00;5040881;28;20044;-70
2023/04/25 02:26:31;;;;;;;16.08;5.60;;;;;;;7.04;82.10;100573.41;5037123;28;20477;-70
2023/04/25 02:28:57;;;;;;;17.25;5.35;;;;;;;6.99;82.56;100569.97;5041021;28;20119;-70
2023/04/25 02:31:22;;;;;;;14.13;5.45;;;;;;;6.95;82.76;100575.09;5048389;28;20029;-70
2023/04/25 02:33:48;;;;;;;13.70;5.85;;;;;;;6.90;82.96;100583.66;5028785;28;20049;-70
2023/04/25 02:36:13;;;;;;;15.93;5.35;;;;;;;6.88;82.78;100587.09;5041680;28;20033;-70
2023/04/25 02:38:39;;;;;;;17.98;5.35;;;;;;;6.87;83.06;100580.22;5048670;28;20048;-71
2023/04/25 02:41:05;;;;;;;13.52;5.55;;;;;;;6.87;83.05;100581.06;5066999;28;20493;-71
2023/04/25 02:43:30;;;;;;;19.23;6.25;;;;;;;6.85;83.61;100580.19;5042253;28;20033;-70
2023/04/25 02:45:56;;;;;;;16.83;5.10;;;;;;;6.84;83.95;100583.63;5047888;28;20054;-71
2023/04/25 02:48:21;;;;;;;14.35;5.60;;;;;;;6.83;83.37;100583.63;5050036;28;20498;-70
2023/04/25 02:50:46;;;;;;;16.30;6.35;;;;;;;6.80;83.86;100591.31;5052745;28;20021;-71
2023/04/25 02:53:12;;;;;;;16.15;5.80;;;;;;;6.78;83.81;100583.59;5076050;28;20028;-70
2023/04/25 02:55:37;;;;;;;19.52;5.93;;;;;;;6.73;84.13;100582.72;5069961;28;20077;-71
2023/04/25 02:58:03;;;;;;;17.30;7.10;;;;;;;6.72;84.13;100587.84;5048601;28;20122;-70
2023/04/25 03:00:29;;;;;;;17.65;6.20;;;;;;;6.69;83.93;100577.56;5048340;28;20037;-70
2023/04/25 03:02:55;;;;;;;16.98;7.20;;;;;;;6.65;84.17;100586.97;5049399;28;20144;-71
2023/04/25 03:05:20;;;;;;;16.67;5.40;;;;;;;6.62;83.99;100586.09;5069287;28;20035;-70
2023/04/25 03:07:46;;;;;;;16.33;5.63;;;;;;;6.58;84.62;100579.25;5068384;28;20048;-71
2023/04/25 03:10:12;;;;;;;16.98;5.78;;;;;;;6.54;85.02;100575.78;5068658;28;20036;-70
2023/04/25 03:12:37;;;;;;;14.40;5.60;;;;;;;6.54;84.59;100587.75;5069092;28;20127;-70
2023/04/25 03:15:03;;;;;;;14.55;5.43;;;;;;;6.51;84.79;100583.47;5069538;28;20104;-70
2023/04/25 03:17:29;;;;;;;18.35;5.95;;;;;;;6.49;85.17;100586.91;5070221;28;20526;-71
2023/04/25 03:19:55;;;;;;;16.60;6.80;;;;;;;6.43;85.60;100584.28;5054736;28;20048;-70
2023/04/25 03:22:21;;;;;;;14.93;5.07;;;;;;;6.39;85.40;100583.41;5087562;28;20063;-71
2023/04/25 03:24:47;;;;;;;14.95;5.55;;;;;;;6.36;86.05;100596.22;5059867;28;20033;-71
2023/04/25 03:27:12;;;;;;;19.52;6.20;;;;;;;6.36;86.03;100585.97;5038598;28;20129;-70
2023/04/25 03:29:38;;;;;;;14.10;4.97;;;;;;;6.36;86.54;100588.53;5040823;28;20072;-70
2023/04/25 03:32:03;;;;;;;17.05;5.35;;;;;;;6.36;86.17;100585.97;5052831;28;20044;-70
2023/04/25 03:34:29;;;;;;;11.57;4.80;;;;;;;6.35;86.21;100587.66;5051199;28;20068;-71
2023/04/25 03:36:54;;;;;;;12.63;4.85;;;;;;;6.36;86.17;100583.41;5051757;28;20083;-70
2023/04/25 03:39:19;;;;;;;14.60;5.57;;;;;;;6.37;86.97;100585.13;5052677;28;20040;-71
2023/04/25 03:41:46;;;;;;;14.00;5.68;;;;;;;6.41;86.22;100583.44;5052577;28;20052;-71
2023/04/25 03:44:11;;;;;;;20.77;6.03;;;;;;;6.44;86.56;100586.03;5053066;28;20499;-70
2023/04/25 03:46:36;;;;;;;17.67;6.47;;;;;;;6.47;86.59;100593.75;5067116;28;20048;-70
2023/04/25 03:49:02;;;;;;;15.88;6.15;;;;;;;6.49;86.56;100594.59;5072431;28;20073;-70
2023/04/25 03:51:27;;;;;;;15.75;5.43;;;;;;;6.53;86.42;100593.75;5065555;28;20033;-71
2023/04/25 03:53:53;;;;;;;13.18;4.97;;;;;;;6.56;85.71;100599.75;5046345;28;20037;-70
2023/04/25 03:56:18;;;;;;;14.73;6.00;;;;;;;6.62;86.09;100599.78;5041268;28;20034;-71
2023/04/25 03:58:44;;;;;;;15.68;5.88;;;;;;;6.67;86.09;100600.69;5036698;28;20429;-71
2023/04/25 04:01:10;;;;;;;16.88;5.63;;;;;;;6.71;85.72;100607.53;5031222;28;20061;-70
2023/04/25 04:03:36;;;;;;;16.85;5.57;;;;;;;6.72;85.77;100604.13;5036192;28;20044;-70
2023/04/25 04:06:03;;;;;;;15.93;5.70;;;;;;;6.75;85.50;100599.00;5057234;28;20032;-71
2023/04/25 04:08:29;;;;;;;19.95;5.45;;;;;;;6.78;85.56;100603.28;5068809;28;20028;-71
2023/04/25 04:10:55;;;;;;;11.80;5.85;;;;;;;6.78;84.97;100600.72;5052352;28;20036;-70
2023/04/25 04:13:21;;;;;;;17.15;5.15;;;;;;;6.81;85.66;100605.88;5052662;28;20410;-70
2023/04/25 04:15:46;;;;;;;14.88;5.50;;;;;;;6.82;85.05;100602.47;5051945;28;20040;-70
2023/04/25 04:18:11;;;;;;;16.25;4.95;;;;;;;6.83;85.38;100599.03;5041449;28;20087;-70
2023/04/25 04:20:37;;;;;;;15.75;6.22;;;;;;;6.81;84.47;100599.03;5068996;28;20028;-70
2023/04/25 04:23:02;;;;;;;14.30;4.95;;;;;;;6.82;84.34;100605.88;5072917;28;20108;-70
2023/04/25 04:25:28;;;;;;;18.63;5.70;;;;;;;6.83;84.68;100606.72;5070451;28;20280;-71
2023/04/25 04:27:54;;;;;;;18.45;5.53;;;;;;;6.84;84.35;100613.59;5053872;28;20029;-70
2023/04/25 04:30:24;;;;;;;18.15;5.85;;;;;;;6.87;84.81;100626.47;5052593;28;20120;-70
2023/04/25 04:32:50;;;;;;;17.58;6.32;;;;;;;6.91;85.02;100626.47;5053280;28;20035;-71
2023/04/25 04:35:16;;;;;;;19.77;5.80;;;;;;;6.94;84.69;100624.78;5072654;28;20486;-70
2023/04/25 04:37:41;;;;;;;18.45;6.13;;;;;;;6.98;84.73;100626.47;5072420;28;20056;-71
2023/04/25 04:40:07;;;;;;;15.02;5.63;;;;;;;6.98;84.08;100624.78;5087953;28;20558;-71
2023/04/25 04:42:38;;;;;;;17.33;6.20;;;;;;;7.01;83.75;100626.50;5065552;28;20041;-71
2023/04/25 04:45:04;;;;;;;18.35;5.75;;;;;;;7.03;84.65;100635.94;5033754;28;20065;-70
2023/04/25 04:47:31;;;;;;;17.75;5.60;;;;;;;7.07;84.54;100634.22;5050995;28;20121;-70
2023/04/25 04:49:57;;;;;;;17.63;5.85;;;;;;;7.09;84.23;100638.53;5049536;28;20045;-70
2023/04/25 04:52:22;;;;;;;19.10;6.43;;;;;;;7.08;84.02;100638.53;5047426;28;20641;-70
2023/04/25 04:54:48;;;;;;;13.82;6.47;;;;;;;7.09;84.66;100642.81;5058243;28;20138;-70
2023/04/25 04:57:13;;;;;;;18.60;5.88;;;;;;;7.12;84.32;100648.81;5067377;28;20032;-70
2023/04/25 04:59:39;;;;;;;15.77;6.40;;;;;;;7.14;84.53;100648.84;5065060;28;20032;-71
2023/04/25 05:02:05;;;;;;;20.35;5.97;;;;;;;7.19;84.53;100654.88;5066507;28;20453;-70
2023/04/25 05:04:30;;;;;;;21.08;6.40;;;;;;;7.19;84.26;100649.72;5066141;28;20107;-69
2023/04/25 05:06:55;;;;;;;16.63;5.95;;;;;;;7.23;85.03;100654.03;5067668;28;20076;-69
2023/04/25 05:09:25;;;;;;;15.27;6.70;;;;;;;7.22;83.78;100660.03;5064907;28;20037;-69
2023/04/25 05:11:50;;;;;;;23.80;7.20;;;;;;;7.24;83.89;100660.91;5064121;28;20055;-69
2023/04/25 05:14:16;;;;;;;18.30;8.50;;;;;;;7.25;84.01;100665.19;5064003;28;20739;-69
2023/04/25 05:16:42;;;;;;;19.63;7.10;;;;;;;7.26;83.47;100670.34;5069348;28;20036;-69
2023/04/25 05:19:07;;;;;;;19.42;6.78;;;;;;;7.29;83.55;100672.06;5057857;28;20068;-68
2023/04/25 05:21:33;;;;;;;13.23;6.40;;;;;;;7.30;83.80;100678.91;5062642;28;20032;-70
2023/04/25 05:23:58;;;;;;;18.05;6.97;;;;;;;7.30;83.52;100676.31;5063643;28;20063;-69
2023/04/25 05:26:23;;;;;;;19.13;8.63;;;;;;;7.31;83.25;100675.47;5063807;28;20314;-69
2023/04/25 05:28:50;;;;;;;16.20;6.10;;;;;;;7.37;83.52;100673.78;5060817;28;20514;-68
2023/04/25 05:31:16;;;;;;;17.55;7.47;;;;;;;7.42;83.59;100674.66;5053824;28;20560;-68
2023/04/25 05:33:41;;;;;;;21.75;6.88;;;;;;;7.48;82.71;100675.56;5059432;28;20052;-68
2023/04/25 05:36:07;;;;;;;20.40;7.40;;;;;;;7.54;83.00;100684.13;5057312;28;20123;-68
2023/04/25 05:38:33;;;;;;;17.05;6.05;;;;;;;7.67;82.60;100683.31;5061787;28;20085;-68
2023/04/25 05:40:58;;;;;;;17.52;6.25;;;;;;;7.78;82.08;100679.03;5059569;28;20041;-68
2023/04/25 05:43:23;;;;;;;19.40;6.65;;;;;;;7.87;80.92;100675.59;5056502;28;20033;-68
2023/04/25 05:45:49;;;;;;;23.27;7.93;;;;;;;8.05;81.17;100674.75;5059837;28;20039;-67
2023/04/25 05:48:14;;;;;;;21.02;6.60;;;;;;;8.17;80.28;100682.47;5063485;28;20401;-67
2023/04/25 05:50:40;;;;;;;17.20;7.38;;;;;;;8.32;79.92;100675.63;5062843;28;20042;-68
2023/04/25 05:53:05;;;;;;;19.65;7.70;;;;;;;8.42;79.15;100674.75;5064323;28;20099;-68
2023/04/25 05:55:31;;;;;;;15.57;6.20;;;;;;;8.50;78.37;100675.59;5059058;28;20051;-68
2023/04/25 05:57:56;;;;;;;18.85;6.63;;;;;;;8.63;78.70;100670.44;5045232;28;20033;-69
2023/04/25 06:00:22;;;;;;;20.92;7.38;;;;;;;8.73;76.64;100667.81;5040245;28;20037;-68
2023/04/25 06:02:48;;;;;;;19.75;7.35;;;;;;;8.76;75.96;100659.22;5042560;28;20077;-68
2023/04/25 06:05:13;;;;;;;16.23;5.97;;;;;;;8.77;75.33;100664.38;5061646;28;20028;-68
2023/04/25 06:07:39;;;;;;;21.88;6.43;;;;;;;8.70;74.99;100660.09;5056982;28;20143;-67
2023/04/25 06:10:06;;;;;;;19.52;5.85;;;;;;;8.75;74.82;100667.81;5052457;28;20032;-68
2023/04/25 06:12:33;;;;;;;15.75;5.43;;;;;;;8.79;74.53;100665.22;5040712;28;20071;-68
2023/04/25 06:14:58;;;;;;;19.17;5.07;;;;;;;8.85;74.51;100651.47;5038406;28;20080;-68
2023/04/25 06:17:24;;;;;;;17.35;5.68;;;;;;;8.87;73.41;100653.16;5039130;28;20501;-69
2023/04/25 06:19:49;;;;;;;13.35;4.68;;;;;;;8.90;73.63;100660.06;5043312;28;20033;-69
2023/04/25 06:22:14;;;;;;;19.73;5.13;;;;;;;8.87;72.86;100663.47;5038104;28;20465;-69
2023/04/25 06:24:40;;;;;;;15.07;4.57;;;;;;;8.92;73.46;100666.06;5038974;28;20041;-68
2023/04/25 06:27:05;;;;;;;18.30;5.15;;;;;;;9.07;71.78;100642.78;5048122;28;20033;-66
2023/04/25 06:29:31;;;;;;;18.00;4.50;;;;;;;9.15;71.29;100633.28;5036828;28;20863;-68
2023/04/25 06:31:57;;;;;;;22.13;4.95;;;;;;;9.08;70.84;100623.84;5065387;28;20043;-70
2023/04/25 06:34:22;;;;;;;19.77;5.28;;;;;;;9.08;71.25;100634.19;5046720;28;20044;-68
2023/04/25 06:36:47;;;;;;;18.52;5.10;;;;;;;9.20;70.51;100634.13;5042977;28;20265;-68
2023/04/25 06:39:13;;;;;;;18.88;5.85;;;;;;;9.25;71.42;100636.69;5044657;28;20032;-69
2023/04/25 06:41:38;;;;;;;18.13;4.80;;;;;;;9.23;70.00;100631.53;5039435;28;20070;-68
2023/04/25 06:44:04;;;;;;;24.17;7.10;;;;;;;9.30;70.05;100629.78;5061878;28;20052;-69
2023/04/25 06:46:29;;;;;;;15.43;4.70;;;;;;;9.37;69.94;100621.16;5048190;28;20124;-69
2023/04/25 06:48:55;;;;;;;12.63;4.80;;;;;;;9.54;69.41;100629.63;5037878;28;20048;-68
2023/04/25 06:51:20;;;;;;;20.45;4.57;;;;;;;9.63;68.42;100596.06;5039869;28;20036;-68
2023/04/25 06:53:46;;;;;;;19.10;5.05;;;;;;;9.75;67.92;100592.53;5039725;28;20101;-68
2023/04/25 06:56:11;;;;;;;20.15;5.43;;;;;;;9.90;67.87;100597.56;5060031;28;20066;-69
2023/04/25 06:58:37;;;;;;;12.50;5.03;;;;;;;10.07;66.66;100583.66;5061767;28;20040;-68
2023/04/25 07:01:03;;;;;;;13.30;3.75;;;;;;;9.85;65.36;100550.31;5054764;28;20056;-66
2023/04/25 07:03:28;;;;;;;17.63;4.07;;;;;;;9.90;65.33;100571.75;5059476;28;20532;-69
2023/04/25 07:05:53;;;;;;;17.55;5.00;;;;;;;10.05;66.17;100585.41;5058678;28;20028;-68
2023/04/25 07:08:20;;;;;;;16.50;4.72;;;;;;;10.06;65.65;100574.19;5061131;28;20370;-68
2023/04/25 07:10:46;;;;;;;12.35;4.07;;;;;;;10.16;65.11;100554.28;5058390;28;20060;-68
2023/04/25 07:13:11;;;;;;;20.50;4.28;;;;;;;10.48;65.14;100572.88;5065419;28;20155;-69
2023/04/25 07:15:37;;;;;;;16.20;4.70;;;;;;;10.63;62.95;100525.31;5049369;28;20075;-68
2023/04/25 07:18:02;;;;;;;13.13;3.75;;;;;;;10.56;62.82;100529.75;5058481;28;20469;-68
2023/04/25 07:20:28;;;;;;;16.70;3.80;;;;;;;10.56;62.17;100544.38;5059801;28;20155;-68
2023/04/25 07:22:53;;;;;;;16.98;4.40;;;;;;;10.37;62.61;100558.38;5067075;28;20072;-70
2023/04/25 07:25:19;;;;;;;21.75;4.55;;;;;;;10.36;62.42;100573.03;5059917;28;20041;-69
2023/04/25 07:27:45;;;;;;;18.48;5.03;;;;;;;10.49;63.52;100581.50;5059384;28;20107;-69
2023/04/25 07:30:11;;;;;;;15.43;5.15;;;;;;;10.46;62.48;100566.88;5059711;28;20028;-67
2023/04/25 07:32:37;;;;;;;14.98;3.53;;;;;;;10.35;62.25;100565.28;5061635;28;20033;-70
2023/04/25 07:35:03;;;;;;;12.98;3.33;;;;;;;10.55;60.21;100515.09;5057751;28;20512;-69
2023/04/25 07:37:28;;;;;;;21.45;4.47;;;;;;;10.40;58.60;100501.50;5058383;28;20040;-67
2023/04/25 07:39:54;;;;;;;12.07;3.42;;;;;;;10.44;62.15;100573.81;5055426;28;20048;-68
2023/04/25 07:42:19;;;;;;;15.00;4.38;;;;;;;10.49;60.64;100542.75;5056186;28;20037;-69
2023/04/25 07:44:45;;;;;;;14.07;4.13;;;;;;;10.52;61.28;100565.97;5060956;28;20884;-69
2023/04/25 07:47:10;;;;;;;17.25;3.60;;;;;;;10.52;61.20;100560.78;5058956;28;20040;-68
2023/04/25 07:49:36;;;;;;;14.65;3.60;;;;;;;10.49;61.13;100563.41;5053979;28;20036;-68
2023/04/25 07:52:03;;;;;;;10.50;3.40;;;;;;;10.20;59.43;100548.25;5068053;28;20028;-68
2023/04/25 07:54:28;;;;;;;15.75;4.15;;;;;;;10.32;60.20;100563.59;5053666;28;20049;-67
2023/04/25 07:56:54;;;;;;;9.15;3.15;;;;;;;10.52;58.13;100525.47;5047443;28;20036;-68
2023/04/25 07:59:20;;;;;;;13.32;3.70;;;;;;;10.39;56.99;100513.56;5040291;28;20031;-65
2023/04/25 08:01:45;;;;;;;11.30;2.90;;;;;;;10.23;57.26;100512.91;5040091;28;20152;-67
2023/04/25 08:04:11;;;;;;;16.85;3.55;;;;;;;10.14;57.51;100544.00;5036775;28;20103;-67
2023/04/25 08:06:36;;;;;;;9.75;2.65;;;;;;;10.31;58.42;100558.44;5039129;28;20044;-68
2023/04/25 08:09:02;;;;;;;9.05;2.45;;;;;;;10.53;57.63;100539.25;5041782;28;20539;-69
2023/04/25 08:11:28;;;;;;;10.60;2.55;;;;;;;10.63;55.16;100507.25;5038981;28;20154;-68
2023/04/25 08:13:54;;;;;;;9.60;2.83;;;;;;;10.67;53.11;100485.66;5043083;28;20128;-68
2023/04/25 08:16:19;;;;;;;8.48;2.60;;;;;;;10.84;53.42;100503.50;5055618;28;20495;-67
2023/04/25 08:18:44;;;;;;;32.20;3.45;;;;;;;10.78;54.82;100527.72;5055536;28;20040;-67
2023/04/25 08:21:11;;;;;;;9.60;2.55;;;;;;;10.80;55.74;100554.44;5043060;28;20037;-69
2023/04/25 08:23:37;;;;;;;14.88;3.20;;;;;;;10.78;55.71;100571.69;5039890;28;20040;-67
2023/04/25 08:26:03;;;;;;;9.18;2.30;;;;;;;10.69;55.56;100569.19;5062594;28;20381;-68
2023/04/25 08:28:28;;;;;;;13.25;2.55;;;;;;;10.66;55.09;100564.94;5059366;28;20044;-69
2023/04/25 08:30:54;;;;;;;12.10;3.00;;;;;;;10.71;53.08;100531.28;5060996;28;20029;-67
2023/04/25 08:33:19;;;;;;;7.10;2.80;;;;;;;10.64;54.86;100564.09;5059911;28;20422;-68
2023/04/25 08:35:45;;;;;;;9.35;2.83;;;;;;;10.76;55.34;100583.78;5061771;28;20139;-70
2023/04/25 08:38:10;;;;;;;6.60;2.50;;;;;;;10.80;53.63;100560.44;5061495;28;20036;-68
2023/04/25 08:40:39;;;;;;;11.10;2.58;;;;;;;11.04;54.05;100577.38;5063246;28;20092;-69
2023/04/25 08:43:11;;;;;;;12.00;2.88;;;;;;;11.01;53.85;100564.47;5055104;28;20488;-68
2023/04/25 08:45:39;;;;;;;8.55;2.72;;;;;;;10.90;53.62;100573.25;5057163;28;20040;-69
2023/04/25 08:48:06;;;;;;;5.85;2.60;;;;;;;11.11;52.56;100554.88;5062310;28;20413;-67
2023/04/25 08:50:32;;;;;;;13.70;2.67;;;;;;;11.05;51.84;100529.09;5065288;28;20108;-68
2023/04/25 08:53:01;;;;;;;14.20;2.58;;;;;;;11.12;52.26;100566.94;5059998;28;20032;-69
2023/04/25 08:55:27;;;;;;;5.88;2.50;;;;;;;11.28;50.72;100532.19;5060307;28;20039;-69
2023/04/25 08:57:54;;;;;;;10.05;2.40;;;;;;;11.38;51.84;100553.59;5060484;28;20032;-69
2023/04/25 09:00:20;;;;;;;11.10;3.22;;;;;;;11.44;52.58;100576.84;5060556;28;20563;-68
2023/04/25 09:02:46;;;;;;;9.15;2.00;;;;;;;11.69;50.75;100545.38;5061943;28;20166;-68
2023/04/25 09:05:15;;;;;;;9.00;2.45;;;;;;;11.72;49.57;100528.94;5055886;28;20028;-68
2023/04/25 09:07:40;;;;;;;11.18;2.53;;;;;;;11.63;50.52;100560.16;5061238;28;20139;-68
2023/04/25 09:10:06;;;;;;;8.20;2.13;;;;;;;11.99;48.62;100527.63;5060904;28;20148;-67
2023/04/25 09:12:31;;;;;;;8.70;2.00;;;;;;;12.11;48.71;100532.59;5055082;28;20414;-68
2023/04/25 09:15:11;;;;;;;8.57;2.15;;;;;;;12.11;49.41;100551.53;5035363;28;20049;-68
2023/04/25 09:17:40;;;;;;;8.00;1.85;;;;;;;12.04;45.38;100479.16;5042965;28;20031;-68
2023/04/25 09:20:15;;;;;;;10.40;2.10;;;;;;;12.02;47.36;100533.56;5043493;28;20100;-68
2023/04/25 09:22:40;;;;;;;;;;;;;;;11.65;48.13;100545.47;5039271;28;20029;-68
2023/04/25 09:25:10;;;;;;;7.57;2.35;;;;;;;11.59;48.17;100574.03;5041114;28;20461;-67
2023/04/25 09:27:36;;;;;;;11.07;2.15;;;;;;;11.25;45.95;100514.97;5042193;28;20091;-69
2023/04/25 09:30:01;;;;;;;7.40;1.85;;;;;;;11.16;47.13;100530.63;5041682;28;20501;-68
2023/04/25 09:32:27;;;;;;;13.85;1.70;;;;;;;11.25;47.68;100564.13;5064195;28;20037;-67
2023/04/25 09:34:55;;;;;;;9.48;2.35;;;;;;;11.21;48.19;100577.16;5041442;28;20383;-67
2023/04/25 09:37:28;;;;;;;9.23;2.22;;;;;;;11.19;47.45;100581.47;5042376;28;20037;-68
2023/04/25 09:39:56;;;;;;;5.82;2.20;;;;;;;11.30;47.21;100558.91;5061278;28;20127;-68
2023/04/25 09:42:23;;;;;;;7.28;2.03;;;;;;;11.33;47.66;100572.66;5054864;28;20119;-67
2023/04/25 09:44:52;;;;;;;6.18;2.22;;;;;;;11.45;48.63;100594.09;5041163;28;20104;-68
2023/04/25 09:47:18;;;;;;;5.85;2.15;;;;;;;11.46;48.03;100585.44;5043396;28;20438;-68
2023/04/25 09:49:43;;;;;;;6.55;2.00;;;;;;;11.59;46.58;100576.63;5035442;28;20055;-67
2023/04/25 09:52:14;;;;;;;9.05;2.20;;;;;;;11.47;47.48;100588.00;5047806;28;20037;-68
2023/04/25 09:54:40;;;;;;;10.07;2.42;;;;;;;11.62;46.75;100568.81;5059031;28;20083;-68
2023/04/25 09:57:13;;;;;;;8.93;2.35;;;;;;;11.62;47.00;100580.03;5059905;28;20767;-68
2023/04/25 09:59:43;;;;;;;9.80;2.78;;;;;;;11.60;46.85;100579.19;5058180;28;20040;-69
2023/04/25 10:02:09;;;;;;;7.32;2.33;;;;;;;11.56;47.59;100587.88;5058611;28;20036;-68
2023/04/25 10:04:36;;;;;;;9.57;2.05;;;;;;;11.48;47.39;100610.44;5039983;28;20065;-68
2023/04/25 10:07:05;;;;;;;7.97;2.05;;;;;;;11.52;48.96;100627.63;5041270;28;20037;-68
2023/04/25 10:09:33;;;;;;;8.57;2.83;;;;;;;11.47;48.14;100621.66;5052620;28;20044;-67
2023/04/25 10:11:59;;;;;;;10.23;2.15;;;;;;;11.33;47.77;100618.38;5063594;28;20047;-67
2023/04/25 10:14:26;;;;;;;9.65;2.05;;;;;;;11.18;47.10;100608.25;5056788;28;20731;-69
2023/04/25 10:16:53;;;;;;;6.28;1.90;;;;;;;11.47;47.47;100623.38;5060516;28;20039;-67
2023/04/25 10:19:20;;;;;;;9.88;2.67;;;;;;;11.63;48.40;100636.09;5061914;28;20184;-69
2023/04/25 10:21:52;;;;;;;8.18;2.47;;;;;;;11.63;47.64;100637.84;5061842;28;20075;-67
2023/04/25 10:24:19;;;;;;;9.20;2.13;;;;;;;11.66;47.68;100623.09;5053595;28;20033;-68
2023/04/25 10:26:45;;;;;;;13.20;2.15;;;;;;;11.65;47.33;100623.97;5045416;28;20143;-68
2023/04/25 10:29:10;;;;;;;6.68;1.98;;;;;;;11.54;47.36;100628.47;5034183;28;20803;-67
2023/04/25 10:31:47;;;;;;;7.50;2.35;;;;;;;11.47;48.49;100646.69;5040219;28;20501;-67
2023/04/25 10:34:13;;;;;;;4.80;1.88;;;;;;;11.20;47.46;100640.97;5041746;28;20047;-67
2023/04/25 10:36:39;;;;;;;13.80;3.00;;;;;;;11.11;49.73;100687.66;5047097;28;20151;-67
2023/04/25 10:39:07;;;;;;;10.55;2.63;;;;;;;10.91;50.11;100693.91;5041162;28;20081;-67
2023/04/25 10:41:45;;;;;;;13.85;2.78;;;;;;;10.54;49.88;100698.59;5042635;28;20033;-68
2023/04/25 10:44:11;;;;;;;10.73;3.00;;;;;;;10.44;50.85;100712.47;5038582;28;20529;-68
2023/04/25 10:46:37;;;;;;;9.48;2.65;;;;;;;10.30;50.48;100722.09;5036196;28;20037;-67
2023/04/25 10:49:03;;;;;;;9.15;2.72;;;;;;;10.22;51.85;100737.63;5041609;28;20037;-68
2023/04/25 10:51:32;;;;;;;10.23;2.97;;;;;;;10.21;51.65;100748.81;5038348;28;20064;-68
2023/04/25 10:54:04;;;;;;;15.35;3.22;;;;;;;10.21;53.02;100761.72;5041153;28;20036;-68
2023/04/25 10:56:34;;;;;;;5.82;2.30;;;;;;;10.24;52.84;100741.91;5036919;28;20032;-68
2023/04/25 10:59:11;;;;;;;8.50;3.22;;;;;;;10.30;51.69;100742.75;5039074;28;20052;-67
2023/04/25 11:01:48;;;;;;;10.50;3.20;;;;;;;10.38;52.74;100744.41;5055097;28;20029;-68
2023/04/25 11:04:21;;;;;;;10.57;2.72;;;;;;;10.49;53.82;100760.66;5057529;28;20036;-67
2023/04/25 11:07:04;;;;;;;8.07;2.40;;;;;;;10.70;52.13;100738.94;5058746;28;20051;-66
2023/04/25 11:09:30;;;;;;;8.32;2.30;;;;;;;10.69;52.00;100734.63;5059490;28;20044;-65
2023/04/25 11:12:00;;;;;;;9.93;3.00;;;;;;;10.77;52.68;100753.53;5057757;28;20029;-65
2023/04/25 11:14:26;;;;;;;7.47;2.40;;;;;;;10.78;51.20;100719.03;5054901;28;20037;-64
2023/04/25 11:16:56;;;;;;;11.82;2.20;;;;;;;11.17;49.90;100702.25;5058325;28;20044;-65
2023/04/25 11:19:23;;;;;;;8.25;2.25;;;;;;;11.55;49.84;100702.63;5055802;28;20032;-65